Time;durP1;ratioP1;P1;durP2;ratioP2;P2;SDS_P1;SDS_P2;PMS_P1;PMS_P2;Temp;Humidity;BMP_temperature;BMP_pressure;BME280_temperature;BME280_humidity;BME280_pressure;Samples;Min_cycle;Max_cycle;Signal;HPM_P1;HPM_P2
2023/02/04 00:06:30;;;;;;;11.10;4.22;;;5.80;51.60;;;;;;20916886;28;20044;-65
2023/02/04 00:16:51;;;;;;;6.65;3.88;;;5.80;51.70;;;;;;20918249;28;20473;-64
2023/02/04 00:27:13;;;;;;;10.85;4.15;;;5.70;51.60;;;;;;20916822;28;20049;-64
2023/02/04 00:37:36;;;;;;;8.15;3.88;;;5.50;51.90;;;;;;20917968;28;20094;-66
2023/02/04 00:47:57;;;;;;;6.88;4.30;;;5.40;52.60;;;;;;20918769;28;20048;-67
2023/02/04 00:58:19;;;;;;;8.43;4.80;;;5.30;53.10;;;;;;20916252;28;20455;-63
2023/02/04 01:08:25;;;;;;;9.68;5.15;;;5.10;53.40;;;;;;20916932;28;20558;-65
2023/02/04 01:18:29;;;;;;;14.48;5.25;;;4.90;53.70;;;;;;20930863;28;20417;-62
2023/02/04 01:28:31;;;;;;;12.90;5.35;;;4.80;54.10;;;;;;20926650;28;20527;-66
2023/02/04 01:38:34;;;;;;;10.20;5.47;;;;;;;;;;20928720;28;20473;-66
2023/02/04 01:48:36;;;;;;;12.68;5.75;;;4.60;54.90;;;;;;20927780;28;20045;-65
2023/02/04 01:58:38;;;;;;;11.00;6.00;;;4.40;55.60;;;;;;20955990;28;20119;-64
2023/02/04 02:08:40;;;;;;;10.00;5.20;;;4.30;55.90;;;;;;20924808;28;20053;-63
2023/02/04 02:18:43;;;;;;;10.40;5.65;;;4.10;56.30;;;;;;20925003;28;20408;-61
2023/02/04 02:28:46;;;;;;;10.73;6.18;;;4.00;56.40;;;;;;20923109;28;20497;-66
2023/02/04 02:38:49;;;;;;;7.97;4.72;;;4.00;56.80;;;;;;20922510;28;20052;-60
2023/02/04 02:48:53;;;;;;;8.68;5.25;;;4.00;56.40;;;;;;20922003;28;20075;-64
2023/02/04 02:58:55;;;;;;;9.55;4.53;;;4.00;56.30;;;;;;20921909;28;20087;-66
2023/02/04 03:09:01;;;;;;;6.93;4.25;;;3.90;56.50;;;;;;20920455;28;20533;-62
2023/02/04 03:19:07;;;;;;;8.80;4.27;;;3.80;56.60;;;;;;20920016;28;20045;-64
2023/02/04 03:29:11;;;;;;;6.40;3.95;;;;;;;;;;20917513;28;20064;-64
2023/02/04 03:39:14;;;;;;;9.65;4.07;;;;;;;;;;20918047;28;20072;-59
2023/02/04 03:49:18;;;;;;;6.85;3.35;;;;;;;;;;20916915;28;20056;-60
2023/02/04 03:59:21;;;;;;;5.85;2.85;;;;;;;;;;20915197;28;20044;-60
2023/02/04 04:09:24;;;;;;;6.20;3.30;;;;;;;;;;20915888;28;20060;-64
2023/02/04 04:19:27;;;;;;;5.80;3.67;;;;;;;;;;20914085;28;20132;-66
2023/02/04 04:29:29;;;;;;;7.20;2.83;;;;;;;;;;20913073;28;20057;-64
2023/02/04 04:39:32;;;;;;;4.80;2.78;;;;;;;;;;20912784;28;20052;-63
2023/02/04 04:49:49;;;;;;;5.32;3.33;;;;;;;;;;20912404;28;20064;-67
2023/02/04 04:59:51;;;;;;;4.50;3.30;;;;;;;;;;20916182;28;20056;-65
2023/02/04 05:09:53;;;;;;;5.50;3.00;;;;;;;;;;20929588;28;20063;-65
2023/02/04 05:19:55;;;;;;;5.53;3.60;;;;;;;;;;20928520;28;20389;-65
2023/02/04 05:29:57;;;;;;;5.88;3.13;;;;;;;;;;20927792;28;20075;-65
2023/02/04 05:40:01;;;;;;;6.72;3.63;;;;;;;;;;20927477;28;20413;-65
2023/02/04 05:50:03;;;;;;;6.72;3.75;;;;;;;;;;20924939;28;20140;-64
2023/02/04 06:00:06;;;;;;;8.25;3.50;;;;;;;;;;20925770;28;20049;-66
2023/02/04 06:10:08;;;;;;;7.78;4.10;;;;;;;;;;20924312;28;20057;-64
2023/02/04 06:20:11;;;;;;;7.30;3.47;;;;;;;;;;20922815;28;20143;-66
2023/02/04 06:30:14;;;;;;;7.60;4.18;;;;;;;;;;20921945;28;20132;-66
2023/02/04 06:40:16;;;;;;;5.30;2.60;;;;;;;;;;20921169;28;20132;-66
2023/02/04 06:50:18;;;;;;;6.40;3.63;;;;;;;;;;20920627;28;20131;-66
2023/02/04 07:00:20;;;;;;;6.07;3.17;;;;;;;;;;20921384;28;20048;-66
2023/02/04 07:10:22;;;;;;;4.20;2.70;;;;;;;;;;20920699;28;20461;-64
2023/02/04 07:20:24;;;;;;;6.82;3.08;;;;;;;;;;20918672;28;20382;-64
2023/02/04 07:30:28;;;;;;;4.28;2.53;;;;;;;;;;20916244;28;20611;-66
2023/02/04 07:40:30;;;;;;;4.43;2.83;;;;;;;;;;20917299;28;20061;-65
2023/02/04 07:50:31;;;;;;;9.02;2.97;;;;;;;;;;20915433;28;20067;-63
2023/02/04 08:00:34;;;;;;;6.07;3.08;;;;;;;;;;20915148;28;20048;-64
2023/02/04 08:10:36;;;;;;;6.03;3.50;;;;;;;;;;20913993;28;20142;-64
2023/02/04 08:20:38;;;;;;;8.00;4.22;;;;;;;;;;20914037;28;20071;-66
2023/02/04 08:30:41;;;;;;;7.75;4.72;;;;;;;;;;20912372;28;20048;-66
2023/02/04 08:40:43;;;;;;;10.90;4.60;;;;;;;;;;20913760;28;20052;-66
2023/02/04 08:50:45;;;;;;;10.30;4.38;;;;;;;;;;20912349;28;20085;-65
2023/02/04 09:00:47;;;;;;;8.95;4.38;;;;;;;;;;20914570;28;20049;-66
2023/02/04 09:10:49;;;;;;;16.23;5.05;;;;;;;;;;20910854;28;20056;-65
2023/02/04 09:20:52;;;;;;;9.98;4.95;;;4.50;53.70;;;;;;20910791;28;20072;-66
2023/02/04 09:30:54;;;;;;;10.07;5.65;;;4.50;53.70;;;;;;20909668;28;20045;-67
2023/02/04 09:41:00;;;;;;;14.82;7.13;;;4.90;52.90;;;;;;20911481;28;20056;-67
2023/02/04 09:51:07;;;;;;;12.48;6.25;;;5.40;51.90;;;;;;20919730;28;20114;-67
2023/02/04 10:01:17;;;;;;;14.65;6.90;;;6.00;50.70;;;;;;20924976;28;20049;-60
2023/02/04 10:11:21;;;;;;;10.93;7.50;;;6.40;49.10;;;;;;20923366;28;20099;-58
2023/02/04 10:21:31;;;;;;;15.38;6.20;;;6.80;48.10;;;;;;20923063;28;20049;-65
2023/02/04 10:31:35;;;;;;;12.98;7.03;;;7.30;46.60;;;;;;20921282;28;20045;-64
2023/02/04 10:41:43;;;;;;;11.70;5.87;;;7.70;46.00;;;;;;20921791;28;20048;-63
2023/02/04 10:51:46;;;;;;;11.32;6.28;;;8.00;45.50;;;;;;20921132;28;20152;-66
2023/02/04 11:01:49;;;;;;;11.23;6.72;;;8.50;44.80;;;;;;20920925;28;20053;-58
2023/02/04 11:11:51;;;;;;;12.55;6.07;;;8.80;43.60;;;;;;20918546;28;20045;-63
2023/02/04 11:22:04;;;;;;;12.43;6.32;;;9.20;43.70;;;;;;20917257;28;20083;-64
2023/02/04 11:32:26;;;;;;;10.30;6.03;;;9.50;43.00;;;;;;20915655;28;20045;-66
2023/02/04 11:42:40;;;;;;;11.13;5.97;;;9.80;42.10;;;;;;20917618;28;20059;-65
2023/02/04 11:52:42;;;;;;;10.35;5.13;;;10.10;41.10;;;;;;20917625;28;20503;-58
2023/02/04 12:02:46;;;;;;;10.30;5.57;;;10.40;41.40;;;;;;20916208;28;20485;-64
2023/02/04 12:12:51;;;;;;;9.32;5.80;;;10.70;40.10;;;;;;20914718;28;20072;-58
2023/02/04 12:22:53;;;;;;;6.77;4.13;;;10.90;40.10;;;;;;20914773;28;20053;-59
2023/02/04 12:32:55;;;;;;;10.20;5.13;;;11.20;38.30;;;;;;20912733;28;20412;-65
2023/02/04 12:42:57;;;;;;;10.13;5.65;;;11.50;36.40;;;;;;20911290;28;20057;-64
2023/02/04 12:52:59;;;;;;;8.52;5.57;;;11.70;36.10;;;;;;20913956;28;20099;-58
2023/02/04 13:03:01;;;;;;;8.73;5.55;;;11.90;35.20;;;;;;20912730;28;20558;-60
2023/02/04 13:13:03;;;;;;;9.10;6.57;;;12.20;34.60;;;;;;20911735;28;20049;-59
2023/02/04 13:23:05;;;;;;;11.05;6.60;;;12.30;34.70;;;;;;20917252;28;20064;-59
2023/02/04 13:33:06;;;;;;;10.98;6.05;;;12.50;34.50;;;;;;20925388;28;20056;-63
2023/02/04 13:43:09;;;;;;;7.25;6.18;;;12.80;33.70;;;;;;20938507;28;20552;-64
2023/02/04 13:53:10;;;;;;;6.72;6.03;;;12.90;34.20;;;;;;20924634;28;20052;-64
2023/02/04 14:03:12;;;;;;;8.90;6.35;;;13.20;33.70;;;;;;20923987;28;20106;-63
2023/02/04 14:13:14;;;;;;;10.13;6.43;;;13.20;33.50;;;;;;20924450;28;20045;-59
2023/02/04 14:23:16;;;;;;;18.45;10.60;;;13.40;32.80;;;;;;20922004;28;20136;-64
2023/02/04 14:33:17;;;;;;;10.18;6.82;;;13.50;32.80;;;;;;20922254;28;20049;-65
2023/02/04 14:43:19;;;;;;;13.00;7.05;;;13.90;32.20;;;;;;20904643;28;20553;-66
2023/02/04 14:53:21;;;;;;;12.18;6.93;;;14.00;32.60;;;;;;20921240;28;20075;-68
2023/02/04 15:03:23;;;;;;;9.52;7.10;;;14.00;32.30;;;;;;20919537;28;20179;-58
2023/02/04 15:13:24;;;;;;;13.38;7.70;;;14.10;32.30;;;;;;20916975;28;20056;-59
2023/02/04 15:23:26;;;;;;;13.38;10.50;;;13.80;33.00;;;;;;20918218;28;20110;-59
2023/02/04 15:33:28;;;;;;;13.02;9.65;;;14.20;31.50;;;;;;20918555;28;20106;-58
2023/02/04 15:43:29;;;;;;;13.35;6.72;;;14.20;32.10;;;;;;20915378;28;20123;-59
2023/02/04 15:53:33;;;;;;;7.50;4.15;;;14.20;31.80;;;;;;20917389;28;20404;-61
2023/02/04 16:03:35;;;;;;;10.13;5.57;;;14.30;31.00;;;;;;20916019;28;20432;-59
2023/02/04 16:13:37;;;;;;;8.18;4.50;;;14.30;31.80;;;;;;20913900;28;20106;-59
2023/02/04 16:23:39;;;;;;;9.07;5.45;;;14.40;32.00;;;;;;20912308;28;20547;-58
2023/02/04 16:33:41;;;;;;;13.20;7.72;;;14.50;32.70;;;;;;20913066;28;20060;-59
2023/02/04 16:43:43;;;;;;;14.00;9.13;;;14.30;33.40;;;;;;20914263;28;20072;-61
2023/02/04 16:53:44;;;;;;;14.85;10.27;;;14.00;34.90;;;;;;20913835;28;20503;-59
2023/02/04 17:03:46;;;;;;;16.90;10.77;;;13.90;35.70;;;;;;20928810;28;20056;-62
2023/02/04 17:13:48;;;;;;;12.70;7.03;;;13.80;36.20;;;;;;20928768;28;20055;-64
2023/02/04 17:23:50;;;;;;;12.55;7.57;;;13.70;37.00;;;;;;20927624;28;20140;-65
2023/02/04 17:33:51;;;;;;;13.27;7.13;;;13.40;38.00;;;;;;20926552;28;20044;-65
2023/02/04 17:43:53;;;;;;;16.23;10.25;;;13.10;40.10;;;;;;20926604;28;20123;-66
2023/02/04 17:53:55;;;;;;;18.40;11.13;;;12.90;40.60;;;;;;20925769;28;20041;-66
2023/02/04 18:03:57;;;;;;;13.02;8.25;;;12.80;41.30;;;;;;20923816;28;20130;-63
2023/02/04 18:14:03;;;;;;;13.85;8.43;;;12.50;42.10;;;;;;20923220;28;20067;-61
2023/02/04 18:24:18;;;;;;;16.92;8.18;;;12.50;42.70;;;;;;20922429;28;20443;-61
2023/02/04 18:34:35;;;;;;;15.53;8.23;;;12.40;43.60;;;;;;20922357;28;20084;-59
2023/02/04 18:44:37;;;;;;;14.18;8.75;;;12.30;44.30;;;;;;20920566;28;20095;-62
2023/02/04 18:54:49;;;;;;;14.70;9.23;;;12.00;45.20;;;;;;20920248;28;20041;-63
2023/02/04 19:04:50;;;;;;;17.92;9.90;;;12.00;45.70;;;;;;20918543;28;20139;-63
2023/02/04 19:14:52;;;;;;;25.98;12.18;;;11.70;46.40;;;;;;20919629;28;20431;-57
2023/02/04 19:25:18;;;;;;;20.13;11.38;;;11.50;47.40;;;;;;20917937;28;20071;-63
2023/02/04 19:35:23;;;;;;;28.02;16.98;;;11.30;47.10;;;;;;20917462;28;20044;-59
2023/02/04 19:45:25;;;;;;;17.97;11.20;;;11.10;48.60;;;;;;20915630;28;20049;-60
2023/02/04 19:55:36;;;;;;;14.65;8.45;;;10.90;49.30;;;;;;20916374;28;20441;-58
2023/02/04 20:05:37;;;;;;;19.08;10.57;;;10.60;49.70;;;;;;20915494;28;20535;-60
2023/02/04 20:15:39;;;;;;;14.85;8.05;;;10.20;50.60;;;;;;20915068;28;20581;-60
2023/02/04 20:25:45;;;;;;;12.90;7.88;;;9.90;51.00;;;;;;20914953;28;20564;-60
2023/02/04 20:36:13;;;;;;;31.77;18.13;;;9.80;51.10;;;;;;20912557;28;20053;-62
2023/02/04 20:46:24;;;;;;;17.63;10.75;;;9.70;51.20;;;;;;20912336;28;20478;-63
2023/02/04 20:56:29;;;;;;;21.05;11.60;;;9.60;51.70;;;;;;20911802;28;20184;-60
2023/02/04 21:06:33;;;;;;;18.50;12.50;;;9.40;52.20;;;;;;20910664;28;20059;-65
2023/02/04 21:16:37;;;;;;;19.05;12.02;;;9.40;52.10;;;;;;20911586;28;20083;-63
2023/02/04 21:26:39;;;;;;;22.80;11.75;;;9.30;51.90;;;;;;20910032;28;20053;-60
2023/02/04 21:36:42;;;;;;;26.92;15.23;;;9.10;52.50;;;;;;20911834;28;20053;-65
2023/02/04 21:46:44;;;;;;;20.70;13.07;;;9.00;52.80;;;;;;20920864;28;20192;-66
2023/02/04 21:56:46;;;;;;;22.50;13.52;;;8.90;53.40;;;;;;20925780;28;20500;-64
2023/02/04 22:06:48;;;;;;;15.57;10.57;;;8.70;54.20;;;;;;20923845;28;20084;-64
2023/02/04 22:16:49;;;;;;;16.73;8.75;;;8.30;54.90;;;;;;20924052;28;20059;-61
2023/02/04 22:26:53;;;;;;;13.82;7.13;;;7.50;53.70;;;;;;20924671;28;20519;-65
2023/02/04 22:36:55;;;;;;;11.75;6.20;;;;;;;;;;20925517;28;20135;-65
2023/02/04 22:46:57;;;;;;;12.27;6.05;;;;;;;;;;20921470;28;20139;-65
2023/02/04 22:56:59;;;;;;;18.38;9.20;;;;;;;;;;20921703;28;20052;-64
2023/02/04 23:07:03;;;;;;;27.85;10.15;;;;;;;;;;20921246;28;20052;-63
2023/02/04 23:17:06;;;;;;;20.67;10.70;;;;;;;;;;20920248;28;20049;-63
2023/02/04 23:27:10;;;;;;;11.82;6.88;;;;;;;;;;20918087;28;20056;-64
2023/02/04 23:37:12;;;;;;;9.30;4.82;;;;;;;;;;20918584;28;20049;-65
2023/02/04 23:47:15;;;;;;;11.25;6.82;;;;;;;;;;20916672;28;20148;-60
2023/02/04 23:57:22;;;;;;;7.50;3.97;;;;;;;;;;20916942;28;20183;-64
